Terminal Aerodrome Forecast
Issued by NWS Portland, OR

Home | Current Version | Previous Version | Text Only | Print | Product List | Glossary On
Versions: 1 2 3 4 5 6 7 8 9 10 11 12 13 14 15 16 17 18 19 20 21 22 23
000
FTUS46 KPQR 022055 AAA
TAFHIO
TAF AMD
KHIO 022055Z 0221/0318 13004KT P6SM -RA FEW030 OVC050
     FM030300 21004KT 4SM -SHRA BR OVC020
     FM031200 00000KT 4SM BR VCSH OVC015=

USA.gov is the U.S. government's official web portal to all federal, state and local government web resources and services.